createdAt,value
2022-11-16T00:00:23.775Z,85.02
2022-11-16T00:02:25.358Z,85.08
2022-11-16T00:04:26.902Z,85.00
2022-11-16T00:06:29.288Z,85.23
2022-11-16T00:08:36.516Z,84.67
2022-11-16T00:10:38.130Z,84.89
2022-11-16T00:12:39.803Z,84.74
2022-11-16T00:14:41.256Z,84.42
2022-11-16T00:16:42.727Z,84.50
2022-11-16T00:18:44.510Z,84.49
2022-11-16T00:20:46.011Z,84.50
2022-11-16T00:22:47.429Z,84.28
2022-11-16T00:24:49.272Z,84.51
2022-11-16T00:26:53.187Z,84.13
2022-11-16T00:28:55.408Z,83.69
2022-11-16T00:31:02.226Z,83.31
2022-11-16T00:33:04.910Z,83.29
2022-11-16T00:35:07.195Z,83.34
2022-11-16T00:37:08.714Z,83.42
2022-11-16T00:39:12.004Z,84.21
2022-11-16T00:41:13.872Z,84.37
2022-11-16T00:43:15.356Z,84.69
2022-11-16T00:45:16.784Z,84.74
2022-11-16T00:47:18.311Z,85.04
2022-11-16T00:49:19.852Z,84.97
2022-11-16T00:51:21.296Z,85.54
2022-11-16T00:53:22.730Z,85.72
2022-11-16T00:55:24.175Z,86.08
2022-11-16T00:57:25.606Z,85.92
2022-11-16T00:59:27.088Z,85.94
2022-11-16T01:01:29.032Z,86.34
2022-11-16T01:03:30.513Z,86.24
2022-11-16T01:05:32.082Z,85.80
2022-11-16T01:07:35.670Z,85.58
2022-11-16T01:09:37.177Z,86.04
2022-11-16T01:11:57.265Z,86.00
2022-11-16T01:13:59.040Z,86.50
2022-11-16T01:16:00.468Z,86.31
2022-11-16T01:18:01.924Z,86.21
2022-11-16T01:20:06.095Z,86.36
2022-11-16T01:22:08.653Z,86.01
2022-11-16T01:24:10.117Z,86.39
2022-11-16T01:26:11.618Z,86.68
2022-11-16T01:28:13.057Z,86.15
2022-11-16T01:30:15.882Z,86.52
2022-11-16T01:32:17.324Z,86.83
2022-11-16T01:34:18.841Z,86.70
2022-11-16T01:36:20.310Z,86.89
2022-11-16T01:38:24.874Z,86.86
2022-11-16T01:40:29.962Z,87.16
2022-11-16T01:42:31.962Z,87.05
2022-11-16T01:44:33.349Z,86.92
2022-11-16T01:46:34.789Z,86.86
2022-11-16T01:48:36.604Z,86.80
2022-11-16T01:50:39.002Z,86.65
2022-11-16T01:52:46.109Z,86.66
2022-11-16T01:54:51.266Z,85.57
2022-11-16T01:56:55.951Z,86.12
2022-11-16T01:58:57.762Z,86.18
2022-11-16T02:00:59.535Z,86.37
2022-11-16T02:03:01.001Z,86.18
2022-11-16T02:05:03.625Z,85.72
2022-11-16T02:07:23.441Z,84.82
2022-11-16T02:09:59.288Z,85.27
2022-11-16T02:12:29.913Z,84.90
2022-11-16T02:14:47.277Z,85.28
2022-11-16T02:17:11.655Z,84.84
2022-11-16T02:19:34.836Z,84.80
2022-11-16T02:21:51.293Z,84.71
2022-11-16T02:23:55.508Z,84.64
2022-11-16T02:26:03.078Z,85.04
2022-11-16T02:28:16.427Z,85.19
2022-11-16T02:30:20.191Z,85.47
2022-11-16T02:32:47.977Z,85.33
2022-11-16T02:34:55.897Z,85.59
2022-11-16T02:37:01.501Z,85.26
2022-11-16T02:39:10.424Z,85.54
2022-11-16T02:41:17.122Z,85.67
2022-11-16T02:43:31.532Z,85.06
2022-11-16T02:45:38.034Z,85.12
2022-11-16T02:47:41.803Z,84.82
2022-11-16T02:49:47.649Z,84.79
2022-11-16T02:51:50.801Z,84.96
2022-11-16T02:53:58.068Z,84.50
2022-11-16T02:55:59.876Z,84.74
2022-11-16T02:58:03.581Z,84.97
2022-11-16T03:00:06.582Z,84.34
2022-11-16T03:02:27.187Z,84.05
2022-11-16T03:04:36.244Z,84.50
2022-11-16T03:06:41.538Z,84.28
2022-11-16T03:08:47.955Z,84.41
2022-11-16T03:11:19.103Z,84.79
2022-11-16T03:13:23.130Z,84.57
2022-11-16T03:15:26.127Z,84.98
2022-11-16T03:17:44.489Z,85.15
2022-11-16T03:19:58.406Z,84.93
2022-11-16T03:22:07.227Z,85.38
2022-11-16T03:24:08.726Z,85.08
2022-11-16T03:26:14.080Z,85.49
2022-11-16T03:28:20.181Z,84.84
2022-11-16T03:30:24.236Z,84.64
2022-11-16T03:32:30.304Z,84.82
2022-11-16T03:34:35.791Z,85.35
2022-11-16T03:36:41.780Z,84.97
2022-11-16T03:38:46.406Z,85.18
2022-11-16T03:40:50.055Z,86.04
2022-11-16T03:42:52.343Z,85.77
2022-11-16T03:44:55.030Z,86.21
2022-11-16T03:46:56.573Z,85.89
2022-11-16T03:48:59.387Z,85.82
2022-11-16T03:51:01.009Z,86.26
2022-11-16T03:53:02.443Z,86.67
2022-11-16T03:55:05.063Z,85.98
2022-11-16T03:57:06.549Z,86.23
2022-11-16T03:59:08.025Z,86.60
2022-11-16T04:01:09.849Z,86.54
2022-11-16T04:03:11.331Z,86.40
2022-11-16T04:05:31.232Z,86.37
2022-11-16T04:07:51.106Z,87.01
2022-11-16T04:10:10.860Z,85.83
2022-11-16T04:12:30.754Z,86.26
2022-11-16T04:14:51.007Z,85.82
2022-11-16T04:17:10.814Z,86.79
2022-11-16T04:19:30.532Z,88.28
2022-11-16T04:21:57.260Z,88.45
2022-11-16T04:24:13.634Z,87.47
2022-11-16T04:26:15.300Z,87.17
2022-11-16T04:28:19.916Z,87.64
2022-11-16T04:30:21.515Z,87.68
2022-11-16T04:32:41.786Z,87.33
2022-11-16T04:35:02.216Z,87.67
2022-11-16T04:37:22.528Z,87.26
2022-11-16T04:39:23.966Z,87.05
2022-11-16T04:41:44.336Z,86.78
2022-11-16T04:43:45.771Z,87.03
2022-11-16T04:46:05.442Z,87.44
2022-11-16T04:48:07.414Z,87.15
2022-11-16T04:50:08.971Z,88.11
2022-11-16T04:52:10.591Z,86.88
2022-11-16T04:54:12.117Z,87.49
2022-11-16T04:56:13.622Z,87.84
2022-11-16T04:58:15.047Z,87.75
2022-11-16T05:00:17.210Z,87.86
2022-11-16T05:02:18.781Z,87.73
2022-11-16T05:04:20.253Z,87.88
2022-11-16T05:06:21.687Z,88.02
2022-11-16T05:08:23.095Z,87.82
2022-11-16T05:10:24.533Z,88.31
2022-11-16T05:12:27.892Z,87.71
2022-11-16T05:14:29.370Z,87.61
2022-11-16T05:16:30.883Z,87.67
2022-11-16T05:18:32.675Z,87.89
2022-11-16T05:20:53.037Z,87.88
2022-11-16T05:22:56.396Z,88.00
2022-11-16T05:24:57.920Z,87.98
2022-11-16T05:27:10.578Z,88.76
2022-11-16T05:29:12.032Z,88.62
2022-11-16T05:31:13.465Z,88.49
2022-11-16T05:33:16.462Z,89.85
2022-11-16T05:35:17.970Z,88.86
2022-11-16T05:37:21.122Z,89.41
2022-11-16T05:39:23.269Z,89.53
2022-11-16T05:41:24.713Z,89.26
2022-11-16T05:43:26.158Z,89.36
2022-11-16T05:45:27.609Z,89.02
2022-11-16T05:47:29.139Z,88.33
2022-11-16T05:49:30.880Z,88.06
2022-11-16T05:51:32.362Z,89.20
2022-11-16T05:53:33.789Z,89.73
2022-11-16T05:55:35.921Z,89.38
2022-11-16T05:57:37.332Z,89.62
2022-11-16T05:59:38.771Z,89.59
2022-11-16T06:01:40.664Z,89.96
2022-11-16T06:03:42.226Z,90.24
2022-11-16T06:05:43.655Z,89.58
2022-11-16T06:07:45.091Z,89.74
2022-11-16T06:09:46.523Z,90.97
2022-11-16T06:11:48.139Z,90.76
2022-11-16T06:13:49.688Z,89.92
2022-11-16T06:15:51.135Z,88.87
2022-11-16T06:17:52.640Z,89.23
2022-11-16T06:19:54.107Z,90.11
2022-11-16T06:21:55.582Z,89.87
2022-11-16T06:23:57.084Z,89.68
2022-11-16T06:25:58.651Z,89.90
2022-11-16T06:28:04.003Z,89.81
2022-11-16T06:30:08.448Z,89.57
2022-11-16T06:32:09.887Z,90.23
2022-11-16T06:34:11.441Z,89.52
2022-11-16T06:36:12.877Z,89.93
2022-11-16T06:38:18.615Z,89.77
2022-11-16T06:40:20.031Z,89.50
2022-11-16T06:42:21.461Z,90.16
2022-11-16T06:44:22.933Z,90.71
2022-11-16T06:46:24.895Z,90.96
2022-11-16T06:48:26.570Z,90.33
2022-11-16T06:50:28.021Z,90.08
2022-11-16T06:52:29.582Z,90.55
2022-11-16T06:54:31.101Z,90.23
2022-11-16T06:56:34.827Z,89.52
2022-11-16T06:58:36.641Z,90.35
2022-11-16T07:00:38.516Z,89.11
2022-11-16T07:02:40.378Z,89.92
2022-11-16T07:04:41.854Z,88.99
2022-11-16T07:06:43.374Z,89.65
2022-11-16T07:08:44.862Z,90.13
2022-11-16T07:10:46.291Z,90.44
2022-11-16T07:12:47.934Z,89.86
2022-11-16T07:14:49.402Z,90.92
2022-11-16T07:16:54.870Z,91.25
2022-11-16T07:18:59.622Z,91.15
2022-11-16T07:21:10.052Z,91.14
2022-11-16T07:23:14.199Z,91.65
2022-11-16T07:25:15.972Z,92.31
2022-11-16T07:27:17.402Z,91.67
2022-11-16T07:29:19.417Z,91.73
2022-11-16T07:31:20.891Z,91.31
2022-11-16T07:33:22.450Z,92.00
2022-11-16T07:35:23.880Z,91.67
2022-11-16T07:37:25.345Z,91.19
2022-11-16T07:39:26.936Z,90.91
2022-11-16T07:41:28.374Z,90.84
2022-11-16T07:43:35.195Z,90.86
2022-11-16T07:45:36.619Z,90.68
2022-11-16T07:47:38.328Z,90.59
2022-11-16T07:49:40.090Z,90.95
2022-11-16T07:51:41.690Z,91.13
2022-11-16T07:53:43.908Z,91.48
2022-11-16T07:55:52.959Z,91.76
2022-11-16T07:57:54.411Z,92.37
2022-11-16T07:59:56.132Z,91.07
2022-11-16T08:01:59.287Z,91.46
2022-11-16T08:04:01.868Z,91.79
2022-11-16T08:06:19.390Z,92.32
2022-11-16T08:08:20.827Z,91.69
2022-11-16T08:10:23.262Z,90.87
2022-11-16T08:12:24.833Z,91.15
2022-11-16T08:14:26.311Z,92.29
2022-11-16T08:16:27.923Z,92.25
2022-11-16T08:18:29.929Z,91.70
2022-11-16T08:20:31.498Z,91.51
2022-11-16T08:22:32.951Z,91.42
2022-11-16T08:24:34.439Z,92.44
2022-11-16T08:26:35.875Z,93.03
2022-11-16T08:28:37.885Z,92.28
2022-11-16T08:30:39.846Z,92.94
2022-11-16T08:32:42.192Z,93.46
2022-11-16T08:34:43.616Z,93.72
2022-11-16T08:36:45.040Z,93.83
2022-11-16T08:38:48.581Z,92.55
2022-11-16T08:40:50.860Z,93.16
2022-11-16T08:42:56.977Z,93.85
2022-11-16T08:44:58.450Z,93.35
2022-11-16T08:47:00.229Z,94.27
2022-11-16T08:49:01.698Z,94.42
2022-11-16T08:51:19.339Z,94.08
2022-11-16T08:53:21.482Z,93.97
2022-11-16T08:55:23.874Z,94.69
2022-11-16T08:57:25.345Z,94.21
2022-11-16T08:59:26.847Z,93.70
2022-11-16T09:01:30.831Z,94.47
2022-11-16T09:03:32.283Z,94.66
2022-11-16T09:05:33.720Z,94.30
2022-11-16T09:07:35.205Z,93.53
2022-11-16T09:09:36.706Z,93.60
2022-11-16T09:11:38.196Z,93.10
2022-11-16T09:13:39.743Z,92.83
2022-11-16T09:15:41.232Z,92.82
2022-11-16T09:17:42.667Z,93.43
2022-11-16T09:19:44.177Z,93.98
2022-11-16T09:21:45.642Z,94.35
2022-11-16T09:23:48.125Z,93.88
2022-11-16T09:25:49.594Z,94.57
2022-11-16T09:27:51.046Z,94.69
2022-11-16T09:29:52.508Z,94.12
2022-11-16T09:31:55.323Z,94.43
2022-11-16T09:33:58.804Z,94.88
2022-11-16T09:36:07.262Z,94.32
2022-11-16T09:38:09.980Z,94.26
2022-11-16T09:40:12.523Z,94.02
2022-11-16T09:42:27.392Z,93.49
2022-11-16T09:44:53.537Z,93.27
2022-11-16T09:47:00.354Z,92.98
2022-11-16T09:49:16.867Z,93.13
2022-11-16T09:51:21.694Z,93.12
2022-11-16T09:53:46.084Z,92.81
2022-11-16T09:55:51.464Z,92.80
2022-11-16T09:57:57.938Z,92.67
2022-11-16T10:00:04.472Z,93.19
2022-11-16T10:02:21.059Z,93.00
2022-11-16T10:04:40.383Z,93.48
2022-11-16T10:06:48.327Z,92.75
2022-11-16T10:08:56.636Z,92.83
2022-11-16T10:11:17.847Z,92.00
2022-11-16T10:13:31.354Z,92.76
2022-11-16T10:15:57.614Z,92.43
2022-11-16T10:18:04.818Z,91.92
2022-11-16T10:20:27.658Z,91.92
2022-11-16T10:22:55.317Z,90.98
2022-11-16T10:25:01.056Z,91.69
2022-11-16T10:27:32.811Z,91.95
2022-11-16T10:29:48.163Z,91.22
2022-11-16T10:32:20.991Z,90.79
2022-11-16T10:34:27.579Z,91.16
2022-11-16T10:36:32.645Z,90.91
2022-11-16T10:38:34.921Z,91.21
2022-11-16T10:40:38.020Z,91.57
2022-11-16T10:42:39.519Z,91.93
2022-11-16T10:44:48.135Z,91.42
2022-11-16T10:47:23.134Z,91.41
2022-11-16T10:49:37.458Z,91.59
2022-11-16T10:51:38.987Z,90.94
2022-11-16T10:53:43.823Z,90.51
2022-11-16T10:55:45.240Z,91.06
2022-11-16T10:58:03.927Z,92.29
2022-11-16T11:00:09.781Z,92.28
2022-11-16T11:02:22.956Z,91.86
2022-11-16T11:04:30.345Z,91.02
2022-11-16T11:06:31.835Z,91.97
2022-11-16T11:08:34.042Z,91.70
2022-11-16T11:10:40.712Z,93.09
2022-11-16T11:13:20.876Z,93.07
2022-11-16T11:15:27.092Z,93.46
2022-11-16T11:17:30.660Z,93.41
2022-11-16T11:19:32.075Z,93.23
2022-11-16T11:21:33.520Z,93.28
2022-11-16T11:23:44.325Z,94.00
2022-11-16T11:25:53.883Z,93.50
2022-11-16T11:28:20.242Z,92.94
2022-11-16T11:30:22.398Z,92.71
2022-11-16T11:32:30.753Z,93.25
2022-11-16T11:34:40.562Z,93.04
2022-11-16T11:36:52.693Z,93.62
2022-11-16T11:39:03.272Z,93.70
2022-11-16T11:41:07.489Z,94.63
2022-11-16T11:43:22.862Z,94.29
2022-11-16T11:45:48.342Z,94.29
2022-11-16T11:47:59.868Z,92.85
2022-11-16T11:50:11.076Z,93.04
2022-11-16T11:52:20.780Z,92.87
2022-11-16T11:54:27.847Z,92.61
2022-11-16T11:56:31.891Z,92.62
2022-11-16T11:58:36.981Z,92.23
2022-11-16T12:01:03.348Z,92.82
2022-11-16T12:03:26.700Z,92.76
2022-11-16T12:05:44.056Z,93.42
2022-11-16T12:07:57.724Z,92.79
2022-11-16T12:10:36.135Z,92.50
2022-11-16T12:13:03.173Z,91.30
2022-11-16T12:15:21.432Z,92.60
2022-11-16T12:17:40.745Z,92.97
2022-11-16T12:20:03.071Z,92.19
2022-11-16T12:22:10.440Z,92.29
2022-11-16T12:24:15.028Z,92.65
2022-11-16T12:26:46.075Z,93.32
2022-11-16T12:28:56.252Z,93.76
2022-11-16T12:31:28.400Z,93.33
2022-11-16T12:33:54.500Z,93.77
2022-11-16T12:36:08.606Z,93.01
2022-11-16T12:38:29.820Z,92.51
2022-11-16T12:40:50.218Z,93.74
2022-11-16T12:42:58.591Z,93.28
2022-11-16T12:45:30.554Z,92.26
2022-11-16T12:48:01.009Z,92.23
2022-11-16T12:50:40.152Z,92.80
2022-11-16T12:52:56.799Z,93.19
2022-11-16T12:55:26.804Z,93.40
2022-11-16T12:57:56.819Z,93.14
2022-11-16T12:59:58.188Z,92.54
2022-11-16T13:02:13.927Z,91.41
2022-11-16T13:04:35.378Z,91.46
2022-11-16T13:06:55.190Z,90.89
2022-11-16T13:09:45.587Z,90.76
2022-11-16T13:11:57.389Z,90.21
2022-11-16T13:14:03.944Z,90.71
2022-11-16T13:16:07.267Z,91.10
2022-11-16T13:18:15.397Z,90.93
2022-11-16T13:21:05.503Z,90.12
2022-11-16T13:23:50.222Z,91.47
2022-11-16T13:26:17.241Z,90.16
2022-11-16T13:28:45.382Z,90.11
2022-11-16T13:31:30.282Z,89.77
2022-11-16T13:33:50.737Z,89.60
2022-11-16T13:35:52.878Z,89.58
2022-11-16T13:37:54.412Z,90.47
2022-11-16T13:39:58.522Z,90.71
2022-11-16T13:42:11.442Z,90.09
2022-11-16T13:44:20.373Z,90.69
2022-11-16T13:46:48.829Z,90.99
2022-11-16T13:48:45.825Z,90.44
2022-11-16T13:50:56.252Z,91.07
2022-11-16T13:53:57.592Z,90.25
2022-11-16T13:55:31.629Z,90.58
2022-11-16T13:57:34.633Z,90.77
2022-11-16T13:59:36.704Z,91.34
2022-11-16T14:02:22.735Z,91.13
2022-11-16T14:04:55.909Z,90.23
2022-11-16T14:06:59.432Z,89.60
2022-11-16T14:09:01.103Z,89.79
2022-11-16T14:11:03.241Z,90.78
2022-11-16T14:13:06.260Z,91.71
2022-11-16T14:15:21.912Z,92.24
2022-11-16T14:18:00.961Z,92.22
2022-11-16T14:20:02.506Z,91.86
2022-11-16T14:22:13.091Z,90.90
2022-11-16T14:24:36.789Z,91.99
2022-11-16T14:27:05.874Z,92.08
2022-11-16T14:29:20.575Z,91.36
2022-11-16T14:31:25.921Z,91.18
2022-11-16T14:33:35.907Z,91.28
2022-11-16T14:35:40.105Z,91.03
2022-11-16T14:37:42.360Z,90.13
2022-11-16T14:39:44.638Z,90.44
2022-11-16T14:41:47.170Z,89.89
2022-11-16T14:43:55.254Z,89.86
2022-11-16T14:46:04.398Z,90.25
2022-11-16T14:48:15.413Z,89.69
2022-11-16T14:50:24.798Z,91.00
2022-11-16T14:52:43.877Z,90.92
2022-11-16T14:54:52.375Z,90.82
2022-11-16T14:57:04.983Z,91.73
2022-11-16T14:59:06.422Z,90.98
2022-11-16T15:01:14.520Z,90.74
2022-11-16T15:03:16.120Z,91.23
2022-11-16T15:05:20.904Z,91.15
2022-11-16T15:07:23.954Z,92.06
2022-11-16T15:09:40.487Z,91.04
2022-11-16T15:12:01.406Z,91.82
2022-11-16T15:14:02.921Z,92.30
2022-11-16T15:16:16.163Z,92.05
2022-11-16T15:18:20.808Z,92.94
2022-11-16T15:20:25.124Z,92.85
2022-11-16T15:22:30.847Z,91.76
2022-11-16T15:24:35.288Z,91.80
2022-11-16T15:26:38.497Z,91.38
2022-11-16T15:28:40.225Z,90.96
2022-11-16T15:30:44.951Z,90.94
2022-11-16T15:32:49.751Z,90.85
2022-11-16T15:34:53.776Z,90.51
2022-11-16T15:36:55.223Z,90.81
2022-11-16T15:38:58.771Z,90.88
2022-11-16T15:41:03.568Z,91.56
2022-11-16T15:43:06.529Z,90.74
2022-11-16T15:45:22.261Z,90.47
2022-11-16T15:47:24.614Z,91.36
2022-11-16T15:49:53.148Z,90.81
2022-11-16T15:51:54.624Z,90.26
2022-11-16T15:54:21.571Z,90.81
2022-11-16T15:56:26.011Z,90.84
2022-11-16T15:58:32.269Z,90.60
2022-11-16T16:00:37.470Z,90.78
2022-11-16T16:02:43.170Z,90.55
2022-11-16T16:04:44.723Z,90.24
2022-11-16T16:06:55.133Z,90.25
2022-11-16T16:09:06.648Z,89.26
2022-11-16T16:11:27.407Z,89.54
2022-11-16T16:13:41.514Z,89.24
2022-11-16T16:15:42.992Z,89.61
2022-11-16T16:17:47.244Z,90.12
2022-11-16T16:19:57.885Z,90.28
2022-11-16T16:21:59.984Z,90.69
2022-11-16T16:24:01.426Z,90.82
2022-11-16T16:26:03.951Z,91.20
2022-11-16T16:28:05.421Z,90.62
2022-11-16T16:30:08.605Z,90.88
2022-11-16T16:32:20.843Z,90.09
2022-11-16T16:34:22.318Z,89.73
2022-11-16T16:36:23.723Z,89.42
2022-11-16T16:38:25.215Z,89.79
2022-11-16T16:40:27.882Z,89.96
2022-11-16T16:42:29.314Z,89.58
2022-11-16T16:44:30.742Z,90.29
2022-11-16T16:46:32.174Z,90.88
2022-11-16T16:48:33.609Z,90.78
2022-11-16T16:50:36.234Z,89.35
2022-11-16T16:52:37.671Z,90.25
2022-11-16T16:54:40.295Z,90.65
2022-11-16T16:56:41.737Z,91.52
2022-11-16T16:58:43.311Z,91.57
2022-11-16T17:00:44.945Z,91.96
2022-11-16T17:02:46.440Z,91.13
2022-11-16T17:04:48.488Z,91.06
2022-11-16T17:06:53.811Z,90.72
2022-11-16T17:08:55.699Z,90.32
2022-11-16T17:10:57.118Z,90.53
2022-11-16T17:12:58.833Z,90.67
2022-11-16T17:15:00.636Z,90.08
2022-11-16T17:17:02.188Z,90.46
2022-11-16T17:19:04.619Z,89.72
2022-11-16T17:21:07.803Z,89.92
2022-11-16T17:23:09.317Z,89.78
2022-11-16T17:25:10.899Z,90.43
2022-11-16T17:27:12.368Z,90.05
2022-11-16T17:29:14.199Z,90.06
2022-11-16T17:31:17.376Z,90.44
2022-11-16T17:33:18.793Z,90.87
2022-11-16T17:35:20.254Z,91.08
2022-11-16T17:37:21.689Z,90.53
2022-11-16T17:39:24.772Z,90.40
2022-11-16T17:41:26.310Z,91.17
2022-11-16T17:43:27.835Z,90.59
2022-11-16T17:45:29.334Z,90.73
2022-11-16T17:47:32.957Z,90.69
2022-11-16T17:49:34.395Z,91.04
2022-11-16T17:51:35.812Z,91.79
2022-11-16T17:53:37.772Z,91.74
2022-11-16T17:55:39.495Z,92.18
2022-11-16T17:57:41.010Z,92.67
2022-11-16T17:59:42.445Z,92.37
2022-11-16T18:01:44.011Z,91.73
2022-11-16T18:03:45.649Z,91.85
2022-11-16T18:05:47.086Z,91.67
2022-11-16T18:07:48.524Z,92.12
2022-11-16T18:09:50.007Z,91.87
2022-11-16T18:11:51.425Z,92.69
2022-11-16T18:13:54.930Z,92.75
2022-11-16T18:16:07.444Z,91.88
2022-11-16T18:18:08.969Z,90.81
2022-11-16T18:20:11.134Z,90.42
2022-11-16T18:22:12.575Z,90.88
2022-11-16T18:24:14.304Z,90.37
2022-11-16T18:26:18.800Z,90.55
2022-11-16T18:28:20.277Z,90.46
2022-11-16T18:30:23.381Z,90.72
2022-11-16T18:32:24.830Z,91.17
2022-11-16T18:34:26.294Z,91.43
2022-11-16T18:36:27.790Z,90.28
2022-11-16T18:38:29.348Z,90.20
2022-11-16T18:40:30.927Z,89.84
2022-11-16T18:42:32.363Z,88.79
2022-11-16T18:44:33.890Z,89.29
2022-11-16T18:46:35.456Z,89.79
2022-11-16T18:48:36.976Z,89.55
2022-11-16T18:50:38.492Z,89.79
2022-11-16T18:52:40.484Z,89.09
2022-11-16T18:54:41.918Z,89.34
2022-11-16T18:56:43.346Z,88.31
2022-11-16T18:58:53.410Z,88.72
2022-11-16T19:00:55.170Z,89.08
2022-11-16T19:02:56.643Z,88.66
2022-11-16T19:04:58.073Z,89.19
2022-11-16T19:06:59.523Z,88.83
2022-11-16T19:09:01.113Z,88.88
2022-11-16T19:11:07.023Z,89.07
2022-11-16T19:13:08.497Z,89.48
2022-11-16T19:15:10.326Z,89.66
2022-11-16T19:17:11.754Z,89.39
2022-11-16T19:19:13.199Z,88.99
2022-11-16T19:21:18.359Z,88.27
2022-11-16T19:23:19.885Z,88.35
2022-11-16T19:25:21.344Z,88.20
2022-11-16T19:27:22.825Z,87.53
2022-11-16T19:29:24.499Z,87.51
2022-11-16T19:31:28.885Z,87.72
2022-11-16T19:33:30.332Z,87.96
2022-11-16T19:35:31.998Z,87.95
2022-11-16T19:37:33.548Z,88.32
2022-11-16T19:39:35.046Z,87.20
2022-11-16T19:41:36.568Z,88.21
2022-11-16T19:43:38.505Z,87.78
2022-11-16T19:45:40.129Z,87.68
2022-11-16T19:47:41.688Z,87.34
2022-11-16T19:49:43.137Z,87.36
2022-11-16T19:51:44.543Z,86.66
2022-11-16T19:53:46.567Z,87.49
2022-11-16T19:55:55.029Z,88.03
2022-11-16T19:57:56.509Z,87.80
2022-11-16T19:59:58.216Z,87.52
2022-11-16T20:01:59.708Z,87.09
2022-11-16T20:04:03.420Z,87.23
2022-11-16T20:06:09.240Z,87.54
2022-11-16T20:08:11.134Z,87.95
2022-11-16T20:10:12.708Z,87.93
2022-11-16T20:12:14.162Z,88.18
2022-11-16T20:14:15.696Z,87.43
2022-11-16T20:16:18.723Z,87.50
2022-11-16T20:18:20.147Z,87.22
2022-11-16T20:20:21.601Z,87.39
2022-11-16T20:22:23.084Z,87.60
2022-11-16T20:24:24.503Z,86.68
2022-11-16T20:26:28.369Z,87.35
2022-11-16T20:28:33.887Z,86.88
2022-11-16T20:30:35.302Z,87.92
2022-11-16T20:32:36.851Z,88.14
2022-11-16T20:34:38.397Z,87.79
2022-11-16T20:36:42.191Z,87.81
2022-11-16T20:38:43.616Z,87.67
2022-11-16T20:40:45.046Z,87.40
2022-11-16T20:42:47.107Z,87.63
2022-11-16T20:44:48.598Z,88.12
2022-11-16T20:46:53.353Z,88.35
2022-11-16T20:48:56.959Z,88.31
2022-11-16T20:50:58.392Z,88.74
2022-11-16T20:52:59.948Z,88.81
2022-11-16T20:55:01.376Z,87.45
2022-11-16T20:57:04.669Z,87.28
2022-11-16T20:59:06.110Z,87.16
2022-11-16T21:01:10.833Z,86.84
2022-11-16T21:03:12.336Z,86.91
2022-11-16T21:05:13.844Z,86.86
2022-11-16T21:07:15.855Z,87.10
2022-11-16T21:09:22.519Z,86.66
2022-11-16T21:11:28.882Z,87.48
2022-11-16T21:13:48.785Z,87.32
2022-11-16T21:16:04.847Z,86.86
2022-11-16T21:18:06.321Z,86.88
2022-11-16T21:22:32.894Z,86.87
2022-11-16T21:24:34.735Z,87.06
2022-11-16T21:26:37.301Z,86.96
2022-11-16T21:28:39.749Z,87.24
2022-11-16T21:30:41.187Z,87.26
2022-11-16T21:32:42.680Z,87.49
2022-11-16T21:34:44.142Z,87.11
2022-11-16T21:36:45.650Z,87.01
2022-11-16T21:38:47.610Z,87.13
2022-11-16T21:40:49.700Z,87.28
2022-11-16T21:42:51.892Z,87.73
2022-11-16T21:44:53.307Z,87.38
2022-11-16T21:46:54.752Z,87.22
2022-11-16T21:48:56.608Z,87.81
2022-11-16T21:51:03.222Z,87.67
2022-11-16T21:53:06.111Z,87.64
2022-11-16T21:55:07.982Z,87.50
2022-11-16T21:57:09.402Z,87.64
2022-11-16T21:59:10.850Z,87.29
2022-11-16T22:01:13.518Z,87.74
2022-11-16T22:03:15.144Z,87.26
2022-11-16T22:05:35.718Z,87.30
2022-11-16T22:07:37.277Z,87.01
2022-11-16T22:09:38.790Z,86.90
2022-11-16T22:11:40.242Z,87.17
2022-11-16T22:13:42.345Z,86.99
2022-11-16T22:15:43.810Z,87.16
2022-11-16T22:17:45.440Z,87.66
2022-11-16T22:19:47.073Z,87.96
2022-11-16T22:21:48.481Z,87.93
2022-11-16T22:23:49.963Z,88.17
2022-11-16T22:25:51.638Z,88.37
2022-11-16T22:28:19.212Z,87.96
2022-11-16T22:30:15.058Z,87.34
2022-11-16T22:32:16.488Z,86.79
2022-11-16T22:34:17.921Z,86.77
2022-11-16T22:36:19.380Z,86.66
2022-11-16T22:38:20.844Z,86.95
2022-11-16T22:40:22.268Z,87.35
2022-11-16T22:42:23.716Z,87.56
2022-11-16T22:44:25.144Z,86.88
2022-11-16T22:46:26.591Z,87.14
2022-11-16T22:48:39.498Z,87.33
2022-11-16T22:50:42.115Z,87.58
2022-11-16T22:52:43.635Z,87.91
2022-11-16T22:54:45.067Z,87.39
2022-11-16T22:56:47.953Z,86.80
2022-11-16T22:58:49.760Z,87.15
2022-11-16T23:00:51.731Z,87.02
2022-11-16T23:02:53.278Z,86.97
2022-11-16T23:04:54.745Z,87.05
2022-11-16T23:06:56.255Z,87.23
2022-11-16T23:08:57.839Z,86.92
2022-11-16T23:11:38.781Z,86.79
2022-11-16T23:13:58.444Z,86.44
2022-11-16T23:16:04.440Z,86.88
2022-11-16T23:18:06.016Z,86.68
2022-11-16T23:20:26.832Z,86.41
2022-11-16T23:22:46.786Z,86.26
2022-11-16T23:25:06.632Z,86.23
2022-11-16T23:27:27.990Z,85.98
2022-11-16T23:29:29.480Z,85.91
2022-11-16T23:31:30.925Z,86.29
2022-11-16T23:33:44.127Z,86.18
2022-11-16T23:35:45.547Z,86.47
2022-11-16T23:38:00.794Z,86.16
2022-11-16T23:40:02.270Z,86.51
2022-11-16T23:42:22.706Z,86.58
2022-11-16T23:44:24.143Z,86.44
2022-11-16T23:46:30.931Z,86.58
2022-11-16T23:48:32.388Z,86.37
2022-11-16T23:50:34.679Z,86.69
2022-11-16T23:52:36.126Z,86.51
2022-11-16T23:54:37.932Z,86.56
2022-11-16T23:56:39.435Z,87.25
2022-11-16T23:58:40.876Z,86.53
